• Join FlightAware (Why Join?)
  • Login
  • US Flag GB Flag 
19:35 EDT


 

Airport Tracker/Info


-or-


 

Live Flight TrackerFlight Track Log ✈ N865JM ✈ 21-Oct-2013 ✈ KAPF - KPBI

Flight Track Log - Related Links

Times and Time Zones

All times are in EDT time to prevent confusion due to time zone crossing. See the N865JM flight status page for this flight to view local times or setup timezone preferences in your user account.

Time Position Orientation Groundspeed Altitude Reporting Facility
EDT Latitude Longitude Course Direction KTS MPH feet Rate Location/Type
13:27 26.2681 -81.8697 22° Northeast 236 272 10,900  Level Miami Center
13:28 26.3483 -81.7781 46° Northeast 310 357 11,000 660 Climbing Miami Center
13:29 26.4017 -81.6878 57° Northeast 325 374 12,300 1,020 Climbing Miami Center
13:30 26.2966 -81.3267 74° East  Level Estimated
13:30 26.4503 -81.5992 58° Northeast 339 390 13,100  Level Miami Center
13:31 26.5036 -81.5017 59° Northeast 345 397 13,000  Descending Miami Center
13:32 26.5547 -81.4014 60° Northeast 359 413 13,100  Climbing Miami Center
13:33 26.6036 -81.3103 59° Northeast 370 426 13,100  Level Miami Center
13:34 26.6589 -81.2081 59° Northeast 375 432 13,100  Level Miami Center
13:35 26.7097 -81.1075 60° Northeast 375 432 13,100 -180 Level Miami Center
13:36 26.7650 -81.0050 59° Northeast 375 432 12,800 -1,200 Descending Miami Center
13:37 26.8181 -80.9044 59° Northeast 363 418 10,700 -1,440 Descending Miami Center
13:38 26.8244 -80.8208 85° East 290 334 10,000 -720 Descending Miami Center
13:39 26.7975 -80.7383 110° East 266 306 9,300 -1,140 Descending Miami Center
13:40 26.7681 -80.6653 114° Southeast 279 321 7,800 -1,560 Descending Miami Center
13:41 26.7367 -80.5831 113° Southeast 273 314 6,200 -1,500 Descending Miami Center
13:42 26.7114 -80.5125 112° Southeast 268 308 4,800 -1,500 Descending Miami Center
13:43 26.6969 -80.4258 101° East 261 300 3,300 -1,200 Descending Miami Center
13:44 26.6942 -80.3583 93° East 249 287 2,500 -660 Descending Miami Center
13:45 26.6900 -80.2722 93° East 249 287 2,000 -420 Descending Miami Center
13:46 26.6853 -80.2139 95° East 225 259 1,700 -300 Descending Miami Center
13:48 26.6202 -80.1453 50° Northeast  Level FlightAware Approximate
13:55 26.6667 -80.0833 50° Northeast  Level FlightAware Approximate
13:56 26.6832 -80.0956 50° Northeast  Level Estimated
13:57 26.6832 -80.0956 50° Northeast  Level Estimated